createdAt,value
2023-05-10T00:00:45.690Z,1.04
2023-05-10T00:02:45.851Z,1.04
2023-05-10T00:03:45.734Z,1.04
2023-05-10T00:04:45.785Z,1.04
2023-05-10T00:05:46.602Z,1.04
2023-05-10T00:07:47.337Z,1.04
2023-05-10T00:09:46.444Z,1.04
2023-05-10T00:10:46.994Z,1.04
2023-05-10T00:11:47.047Z,1.04
2023-05-10T00:12:46.934Z,1.04
2023-05-10T00:13:46.951Z,1.04
2023-05-10T00:14:47.069Z,1.04
2023-05-10T00:15:47.209Z,1.04
2023-05-10T00:16:47.363Z,1.04
2023-05-10T00:17:47.435Z,1.04
2023-05-10T00:18:47.555Z,1.04
2023-05-10T00:19:47.723Z,1.04
2023-05-10T00:20:47.823Z,1.04
2023-05-10T00:21:47.962Z,1.04
2023-05-10T00:22:48.110Z,1.04
2023-05-10T00:23:48.264Z,1.04
2023-05-10T00:24:48.364Z,1.04
2023-05-10T00:25:48.469Z,1.04
2023-05-10T00:26:48.571Z,1.04
2023-05-10T00:27:48.732Z,1.04
2023-05-10T00:28:48.897Z,1.04
2023-05-10T00:29:48.986Z,1.04
2023-05-10T00:30:49.140Z,1.04
2023-05-10T00:31:49.322Z,1.04
2023-05-10T00:32:49.534Z,1.04
2023-05-10T00:33:49.588Z,1.04
2023-05-10T00:34:49.732Z,1.04
2023-05-10T00:35:49.847Z,1.04
2023-05-10T00:36:49.942Z,1.04
2023-05-10T00:37:50.092Z,1.04
2023-05-10T00:38:50.201Z,1.04
2023-05-10T00:39:50.305Z,1.04
2023-05-10T00:40:50.466Z,1.04
2023-05-10T00:41:50.602Z,1.04
2023-05-10T00:42:50.747Z,1.04
2023-05-10T00:43:50.902Z,1.04
2023-05-10T00:44:51.005Z,1.04
2023-05-10T00:45:51.194Z,1.04
2023-05-10T00:46:51.254Z,1.04
2023-05-10T00:47:51.426Z,1.04
2023-05-10T00:48:51.522Z,1.04
2023-05-10T00:49:51.660Z,1.04
2023-05-10T00:50:51.808Z,1.04
2023-05-10T00:51:51.931Z,1.04
2023-05-10T00:52:52.075Z,1.04
2023-05-10T00:53:52.206Z,1.04
2023-05-10T00:54:52.320Z,1.04
2023-05-10T00:55:52.489Z,1.04
2023-05-10T00:56:52.605Z,1.04
2023-05-10T00:57:52.687Z,1.04
2023-05-10T00:58:52.828Z,1.04
2023-05-10T00:59:53.005Z,1.04
2023-05-10T01:00:53.140Z,1.04
2023-05-10T01:01:53.291Z,1.04
2023-05-10T01:02:53.501Z,1.04
2023-05-10T01:03:53.587Z,1.04
2023-05-10T01:04:53.705Z,1.04
2023-05-10T01:05:53.806Z,1.04
2023-05-10T01:06:53.958Z,1.04
2023-05-10T01:07:54.108Z,1.04
2023-05-10T01:08:54.256Z,1.04
2023-05-10T01:09:54.363Z,1.04
2023-05-10T01:10:54.502Z,1.04
2023-05-10T01:11:54.628Z,1.04
2023-05-10T01:12:54.718Z,1.04
2023-05-10T01:13:54.859Z,1.04
2023-05-10T01:14:54.968Z,1.04
2023-05-10T01:15:55.151Z,1.04
2023-05-10T01:16:55.264Z,1.04
2023-05-10T01:17:55.399Z,1.04
2023-05-10T01:18:55.464Z,1.04
2023-05-10T01:19:55.619Z,1.04
2023-05-10T01:20:55.720Z,1.04
2023-05-10T01:21:55.828Z,1.04
2023-05-10T01:22:55.982Z,1.04
2023-05-10T01:23:56.117Z,1.04
2023-05-10T01:24:56.232Z,1.04
2023-05-10T01:25:56.389Z,1.04
2023-05-10T01:26:56.533Z,1.04
2023-05-10T01:27:56.627Z,1.04
2023-05-10T01:28:56.791Z,1.04
2023-05-10T01:30:09.480Z,1.04
2023-05-10T01:30:57.049Z,1.04
2023-05-10T01:31:57.140Z,1.04
2023-05-10T01:32:57.337Z,1.04
2023-05-10T01:33:57.394Z,1.04
2023-05-10T01:34:57.523Z,1.04
2023-05-10T01:35:57.604Z,1.04
2023-05-10T01:36:57.696Z,1.04
2023-05-10T01:37:57.855Z,1.04
2023-05-10T01:38:57.947Z,1.04
2023-05-10T01:39:58.099Z,1.04
2023-05-10T01:40:58.198Z,1.04
2023-05-10T01:41:58.393Z,1.04
2023-05-10T01:42:58.461Z,1.04
2023-05-10T01:43:58.615Z,1.04
2023-05-10T01:44:58.768Z,1.04
2023-05-10T01:45:58.909Z,1.04
2023-05-10T01:46:59.117Z,1.04
2023-05-10T01:47:59.211Z,1.04
2023-05-10T01:48:59.303Z,1.04
2023-05-10T01:49:59.415Z,1.04
2023-05-10T01:50:59.530Z,1.04
2023-05-10T01:51:59.708Z,1.04
2023-05-10T01:52:59.841Z,1.04
2023-05-10T01:53:59.974Z,1.04
2023-05-10T01:55:00.167Z,1.04
2023-05-10T01:56:00.230Z,1.04
2023-05-10T01:57:00.406Z,1.04
2023-05-10T01:58:00.485Z,1.04
2023-05-10T01:59:00.627Z,1.04
2023-05-10T02:00:00.728Z,1.04
2023-05-10T02:01:00.901Z,1.04
2023-05-10T02:02:00.996Z,1.04
2023-05-10T02:03:01.192Z,1.04
2023-05-10T02:04:01.294Z,1.04
2023-05-10T02:05:01.384Z,1.04
2023-05-10T02:06:01.483Z,1.04
2023-05-10T02:07:01.672Z,1.04
2023-05-10T02:08:01.745Z,1.04
2023-05-10T02:09:01.850Z,1.04
2023-05-10T02:10:01.950Z,1.04
2023-05-10T02:11:02.117Z,1.04
2023-05-10T02:12:02.195Z,1.04
2023-05-10T02:13:02.361Z,1.04
2023-05-10T02:14:02.454Z,1.04
2023-05-10T02:15:02.558Z,1.04
2023-05-10T02:16:02.712Z,1.04
2023-05-10T02:17:02.823Z,1.04
2023-05-10T02:18:03.018Z,1.04
2023-05-10T02:19:03.138Z,1.04
2023-05-10T02:20:03.214Z,1.04
2023-05-10T02:21:03.377Z,1.04
2023-05-10T02:22:03.531Z,1.04
2023-05-10T02:23:03.684Z,1.04
2023-05-10T02:24:03.826Z,1.04
2023-05-10T02:25:03.926Z,1.04
2023-05-10T02:26:04.079Z,1.04
2023-05-10T02:27:04.237Z,1.04
2023-05-10T02:28:04.336Z,1.04
2023-05-10T02:29:04.484Z,1.04
2023-05-10T02:30:04.595Z,1.04
2023-05-10T02:31:04.749Z,1.04
2023-05-10T02:32:04.942Z,1.04
2023-05-10T02:33:05.016Z,1.04
2023-05-10T02:34:05.160Z,1.04
2023-05-10T02:35:05.295Z,1.04
2023-05-10T02:36:05.405Z,1.04
2023-05-10T02:37:05.559Z,1.04
2023-05-10T02:38:05.713Z,1.04
2023-05-10T02:39:05.800Z,1.04
2023-05-10T02:40:05.931Z,1.04
2023-05-10T02:41:06.069Z,1.04
2023-05-10T02:42:06.226Z,1.04
2023-05-10T02:43:06.263Z,2
2023-05-10T02:44:06.410Z,2
2023-05-10T02:45:06.526Z,2
2023-05-10T02:46:06.729Z,2
2023-05-10T02:47:06.796Z,2
2023-05-10T02:48:06.948Z,3.04
2023-05-10T02:49:07.035Z,3.04
2023-05-10T02:50:07.195Z,3.04
2023-05-10T02:51:07.267Z,4
2023-05-10T02:52:07.383Z,4
2023-05-10T02:53:07.550Z,5.04
2023-05-10T02:54:07.686Z,5.04
2023-05-10T02:55:07.825Z,6
2023-05-10T02:56:08.008Z,7.04
2023-05-10T02:57:08.106Z,8
2023-05-10T02:58:08.236Z,9.04
2023-05-10T02:59:08.383Z,10
2023-05-10T03:00:08.490Z,12
2023-05-10T03:01:08.679Z,13.04
2023-05-10T03:02:08.731Z,16
2023-05-10T03:03:08.880Z,18
2023-05-10T03:04:09.020Z,20
2023-05-10T03:05:09.146Z,22
2023-05-10T03:06:09.248Z,25.04
2023-05-10T03:07:09.356Z,29.04
2023-05-10T03:08:09.449Z,35.04
2023-05-10T03:09:09.558Z,40
2023-05-10T03:10:09.715Z,48
2023-05-10T03:11:09.804Z,56
2023-05-10T03:12:09.902Z,67.04
2023-05-10T03:13:10.078Z,76
2023-05-10T03:14:10.159Z,85.04
2023-05-10T03:15:10.265Z,98
2023-05-10T03:16:10.442Z,109.04
2023-05-10T03:17:10.472Z,120
2023-05-10T03:18:10.575Z,137.04
2023-05-10T03:19:10.732Z,155.04
2023-05-10T03:20:10.880Z,178.08
2023-05-10T03:21:10.972Z,200
2023-05-10T03:22:11.086Z,224
2023-05-10T03:23:11.224Z,255.04
2023-05-10T03:24:11.327Z,283.04
2023-05-10T03:25:11.425Z,312
2023-05-10T03:26:11.532Z,341.12
2023-05-10T03:27:11.700Z,383.04
2023-05-10T03:28:11.796Z,418.24
2023-05-10T03:29:11.944Z,455.04
2023-05-10T03:30:12.031Z,493.12
2023-05-10T03:31:12.220Z,533.12
2023-05-10T03:32:12.353Z,585.28
2023-05-10T03:33:12.498Z,625.28
2023-05-10T03:34:12.601Z,668.16
2023-05-10T03:35:12.775Z,716.16
2023-05-10T03:36:12.946Z,774.4
2023-05-10T03:37:13.005Z,824.32
2023-05-10T03:38:13.149Z,876.16
2023-05-10T03:39:13.259Z,930.56
2023-05-10T03:40:13.396Z,982.4
2023-05-10T03:41:13.557Z,1033.6
2023-05-10T03:42:13.734Z,1103.36
2023-05-10T03:43:13.876Z,1155.2
2023-05-10T03:44:14.008Z,1223.04
2023-05-10T03:45:14.186Z,1268.48
2023-05-10T03:46:14.348Z,1408
2023-05-10T03:47:14.409Z,1468.16
2023-05-10T03:48:14.594Z,1529.6
2023-05-10T03:49:14.715Z,1619.2
2023-05-10T03:50:14.951Z,1685.76
2023-05-10T03:51:14.934Z,1761.28
2023-05-10T03:52:15.085Z,1859.84
2023-05-10T03:53:15.179Z,1937.92
2023-05-10T03:54:15.328Z,2039.04
2023-05-10T03:55:15.474Z,2140.16
2023-05-10T03:56:15.602Z,2241.28
2023-05-10T03:57:15.734Z,2336
2023-05-10T03:58:15.902Z,2469.12
2023-05-10T03:59:16.079Z,2581.76
2023-05-10T04:00:16.423Z,2721.28
2023-05-10T04:01:16.296Z,2836.48
2023-05-10T04:02:16.501Z,2977.28
2023-05-10T04:03:16.574Z,3089.92
2023-05-10T04:04:16.703Z,3207.68
2023-05-10T04:05:16.792Z,3351.04
2023-05-10T04:06:17.067Z,3458.56
2023-05-10T04:07:17.087Z,3563.52
2023-05-10T04:08:17.227Z,3691.52
2023-05-10T04:09:17.339Z,3796.48
2023-05-10T04:10:17.808Z,3891.2
2023-05-10T04:11:17.595Z,4003.84
2023-05-10T04:12:17.786Z,4098.56
2023-05-10T04:13:17.958Z,4229.12
2023-05-10T04:14:18.083Z,4328.96
2023-05-10T04:15:18.211Z,4428.8
2023-05-10T04:16:18.327Z,4551.68
2023-05-10T04:17:18.442Z,4677.12
2023-05-10T04:18:18.571Z,4815.36
2023-05-10T04:19:18.716Z,4922.88
2023-05-10T04:20:18.975Z,5032.96
2023-05-10T04:21:19.034Z,5173.76
2023-05-10T04:22:19.129Z,5283.84
2023-05-10T04:23:19.279Z,5376
2023-05-10T04:24:19.397Z,5504
2023-05-10T04:25:19.543Z,5601.28
2023-05-10T04:26:19.645Z,5739.52
2023-05-10T04:27:19.738Z,5852.16
2023-05-10T04:28:19.881Z,5959.68
2023-05-10T04:29:19.995Z,6108.16
2023-05-10T04:30:20.134Z,6241.28
2023-05-10T04:31:20.397Z,6338.56
2023-05-10T04:32:20.393Z,6487.04
2023-05-10T04:33:20.497Z,6584.32
2023-05-10T04:34:20.644Z,6702.08
2023-05-10T04:35:20.766Z,6850.56
2023-05-10T04:36:20.869Z,6968.32
2023-05-10T04:37:21.008Z,7137.28
2023-05-10T04:38:21.147Z,7275.52
2023-05-10T04:39:21.257Z,7398.4
2023-05-10T04:40:21.413Z,7557.12
2023-05-10T04:41:21.554Z,7741.44
2023-05-10T04:42:21.676Z,7905.28
2023-05-10T04:43:21.758Z,8125.44
2023-05-10T04:44:21.858Z,8309.76
2023-05-10T04:45:21.973Z,8463.359
2023-05-10T04:46:22.142Z,8611.84
2023-05-10T04:47:22.291Z,8832
2023-05-10T04:48:22.370Z,8975.359
2023-05-10T04:49:22.504Z,9175.04
2023-05-10T04:50:22.629Z,9303.04
2023-05-10T04:51:22.741Z,9472
2023-05-10T04:52:22.829Z,9610.24
2023-05-10T04:53:22.991Z,9697.279
2023-05-10T04:54:23.131Z,9630.72
2023-05-10T04:55:23.248Z,9656.319
2023-05-10T04:56:23.380Z,9344
2023-05-10T04:57:23.496Z,9175.04
2023-05-10T04:58:23.631Z,9692.16
2023-05-10T04:59:23.791Z,10091.52
2023-05-10T05:00:23.936Z,10204.16
2023-05-10T05:01:24.175Z,10470.399
2023-05-10T05:02:24.287Z,10844.16
2023-05-10T05:03:24.402Z,11130.88
2023-05-10T05:04:24.511Z,11683.84
2023-05-10T05:05:24.603Z,12011.52
2023-05-10T05:06:24.706Z,12206.08
2023-05-10T05:07:24.855Z,12482.56
2023-05-10T05:08:25.020Z,12707.84
2023-05-10T05:09:25.117Z,12892.16
2023-05-10T05:10:25.262Z,14120.96
2023-05-10T05:11:25.337Z,14295.04
2023-05-10T05:12:25.461Z,14704.64
2023-05-10T05:13:25.757Z,14960.64
2023-05-10T05:14:25.716Z,15196.159
2023-05-10T05:15:25.866Z,15329.279
2023-05-10T05:16:26.048Z,15646.72
2023-05-10T05:17:26.159Z,16046.08
2023-05-10T05:18:26.268Z,16384
2023-05-10T05:19:26.428Z,16773.12
2023-05-10T05:20:26.528Z,17131.52
2023-05-10T05:21:26.679Z,17500.16
2023-05-10T05:22:26.828Z,17940.48
2023-05-10T05:23:26.976Z,17960.96
2023-05-10T05:24:27.080Z,18073.6
2023-05-10T05:25:27.206Z,17940.48
2023-05-10T05:26:27.359Z,17233.92
2023-05-10T05:27:27.443Z,16865.28
2023-05-10T05:28:27.617Z,16967.68
2023-05-10T05:29:27.712Z,17561.6
2023-05-10T05:30:27.851Z,18114.56
2023-05-10T05:31:28.052Z,18432
2023-05-10T05:32:28.172Z,19896.32
2023-05-10T05:33:28.250Z,20408.32
2023-05-10T05:34:28.393Z,20817.92
2023-05-10T05:35:28.572Z,20613.12
2023-05-10T05:36:28.724Z,20387.84
2023-05-10T05:37:28.811Z,20572.16
2023-05-10T05:38:28.927Z,21073.92
2023-05-10T05:39:29.052Z,21708.8
2023-05-10T05:40:29.217Z,22323.2
2023-05-10T05:41:29.309Z,23265.28
2023-05-10T05:42:29.427Z,24330.24
2023-05-10T05:43:29.569Z,24780.8
2023-05-10T05:44:29.745Z,25313.28
2023-05-10T05:45:29.848Z,25620.48
2023-05-10T05:46:29.912Z,25845.76
2023-05-10T05:47:30.056Z,26644.48
2023-05-10T05:48:30.173Z,27115.52
2023-05-10T05:49:30.321Z,25477.12
2023-05-10T05:50:30.470Z,20776.96
2023-05-10T05:51:30.583Z,23326.72
2023-05-10T05:52:30.731Z,27811.84
2023-05-10T05:53:30.878Z,28262.4
2023-05-10T05:54:31.042Z,28180.48
2023-05-10T05:55:31.191Z,27217.92
2023-05-10T05:56:31.339Z,28057.6
2023-05-10T05:57:31.484Z,27340.8
2023-05-10T05:58:31.643Z,29757.44
2023-05-10T05:59:31.736Z,29511.68
2023-05-10T06:00:31.848Z,29040.64
2023-05-10T06:01:32.002Z,30453.76
2023-05-10T06:02:32.130Z,29265.92
2023-05-10T06:03:32.287Z,29347.84
2023-05-10T06:04:32.396Z,29900.8
2023-05-10T06:05:32.405Z,31129.6
2023-05-10T06:06:32.514Z,32133.12
2023-05-10T06:07:32.651Z,29614.08
2023-05-10T06:08:32.816Z,27054.08
2023-05-10T06:09:32.975Z,28344.32
2023-05-10T06:10:33.114Z,24453.12
2023-05-10T06:11:33.226Z,22896.64
2023-05-10T06:12:33.310Z,21299.2
2023-05-10T06:13:33.740Z,21176.32
2023-05-10T06:14:33.567Z,21155.84
2023-05-10T06:15:33.717Z,20961.28
2023-05-10T06:16:33.865Z,21626.88
2023-05-10T06:17:33.986Z,22773.76
2023-05-10T06:18:34.134Z,22118.4
2023-05-10T06:19:34.223Z,20183.04
2023-05-10T06:20:34.341Z,19517.44
2023-05-10T06:21:34.442Z,18984.96
2023-05-10T06:22:34.531Z,18903.04
2023-05-10T06:23:34.652Z,18821.12
2023-05-10T06:24:34.745Z,18862.08
2023-05-10T06:25:34.884Z,18913.28
2023-05-10T06:26:34.988Z,19169.28
2023-05-10T06:27:35.087Z,19630.08
2023-05-10T06:28:35.199Z,21708.8
2023-05-10T06:29:35.309Z,23736.32
2023-05-10T06:30:35.446Z,22487.04
2023-05-10T06:31:35.625Z,21258.24
2023-05-10T06:32:35.787Z,19619.84
2023-05-10T06:33:35.902Z,19712
2023-05-10T06:34:36.009Z,20152.32
2023-05-10T06:35:36.172Z,20418.56
2023-05-10T06:36:36.306Z,20183.04
2023-05-10T06:37:36.411Z,20254.72
2023-05-10T06:38:36.519Z,20449.28
2023-05-10T06:39:36.657Z,20715.52
2023-05-10T06:40:36.775Z,21504
2023-05-10T06:41:36.917Z,24371.2
2023-05-10T06:42:37.091Z,23818.24
2023-05-10T06:43:37.215Z,22855.68
2023-05-10T06:44:37.378Z,22732.8
2023-05-10T06:45:37.544Z,22937.6
2023-05-10T06:46:37.780Z,23326.72
2023-05-10T06:47:39.084Z,22650.88
2023-05-10T06:48:37.928Z,22323.2
2023-05-10T06:49:38.044Z,22568.96
2023-05-10T06:50:38.198Z,23060.48
2023-05-10T06:51:38.334Z,23633.92
2023-05-10T06:52:38.478Z,23920.64
2023-05-10T06:53:38.580Z,24719.36
2023-05-10T06:54:38.684Z,29818.88
2023-05-10T06:55:38.836Z,41164.8
2023-05-10T06:56:39.013Z,39628.8
2023-05-10T06:57:39.151Z,35532.8
2023-05-10T06:58:39.279Z,36249.6
2023-05-10T06:59:39.431Z,36454.4
2023-05-10T07:00:39.554Z,29921.28
2023-05-10T07:01:39.665Z,20899.84
2023-05-10T07:02:39.820Z,20060.16
2023-05-10T07:03:39.899Z,20715.52
2023-05-10T07:04:40.073Z,44482.56
2023-05-10T07:05:40.192Z,47104
2023-05-10T07:06:40.318Z,43294.72
2023-05-10T07:07:40.482Z,38297.6
2023-05-10T07:08:40.558Z,25026.56
2023-05-10T07:09:40.657Z,22671.36
2023-05-10T07:10:40.818Z,22241.28
2023-05-10T07:11:40.966Z,21913.6
2023-05-10T07:12:41.121Z,22097.92
2023-05-10T07:13:41.209Z,22323.2
2023-05-10T07:14:41.321Z,22487.04
2023-05-10T07:15:41.471Z,22671.36
2023-05-10T07:16:41.652Z,22896.64
2023-05-10T07:17:43.328Z,23347.2
2023-05-10T07:18:41.942Z,23941.12
2023-05-10T07:19:42.030Z,24719.36
2023-05-10T07:20:42.152Z,25231.36
2023-05-10T07:21:42.277Z,26234.88
2023-05-10T07:22:42.383Z,27361.28
2023-05-10T07:23:44.353Z,27176.96
2023-05-10T07:24:42.636Z,27852.8
2023-05-10T07:25:42.746Z,27627.52
2023-05-10T07:26:42.968Z,27258.88
2023-05-10T07:27:43.031Z,27914.24
2023-05-10T07:28:43.146Z,28794.88
2023-05-10T07:29:43.267Z,30801.92
2023-05-10T07:30:43.415Z,32440.32
2023-05-10T07:31:43.524Z,34344.96
2023-05-10T07:32:43.639Z,37478.4
2023-05-10T07:33:43.703Z,39690.24
2023-05-10T07:34:43.817Z,35205.12
2023-05-10T07:35:43.892Z,48988.16
2023-05-10T07:36:44.041Z,49807.36
2023-05-10T07:37:44.142Z,45506.56
2023-05-10T07:38:44.329Z,34447.36
2023-05-10T07:39:44.454Z,31027.2
2023-05-10T07:40:44.549Z,30044.16
2023-05-10T07:41:44.708Z,29409.28
2023-05-10T07:42:44.817Z,29122.56
2023-05-10T07:43:44.994Z,29347.84
2023-05-10T07:44:45.113Z,29962.24
2023-05-10T07:45:45.312Z,30904.32
2023-05-10T07:46:45.362Z,31846.4
2023-05-10T07:47:45.580Z,32378.88
2023-05-10T07:48:45.667Z,32727.04
2023-05-10T07:49:45.892Z,32768
2023-05-10T07:50:45.975Z,32194.56
2023-05-10T07:51:46.130Z,31600.64
2023-05-10T07:52:46.287Z,30658.56
2023-05-10T07:53:46.428Z,29204.48
2023-05-10T07:54:46.599Z,28119.04
2023-05-10T07:55:46.737Z,27054.08
2023-05-10T07:56:46.856Z,25968.64
2023-05-10T07:57:46.990Z,24944.64
2023-05-10T07:58:47.152Z,24248.32
2023-05-10T07:59:47.308Z,23511.04
2023-05-10T08:00:47.397Z,22999.04
2023-05-10T08:01:47.571Z,22138.88
2023-05-10T08:02:47.772Z,21381.12
2023-05-10T08:03:47.851Z,20807.68
2023-05-10T08:04:47.911Z,20572.16
2023-05-10T08:05:48.054Z,20613.12
2023-05-10T08:06:48.222Z,21155.84
2023-05-10T08:07:48.415Z,22077.44
2023-05-10T08:08:48.527Z,23080.96
2023-05-10T08:09:48.666Z,23941.12
2023-05-10T08:10:48.837Z,23859.2
2023-05-10T08:11:48.926Z,23142.4
2023-05-10T08:12:49.075Z,22466.56
2023-05-10T08:13:49.220Z,20807.68
2023-05-10T08:14:49.374Z,20131.84
2023-05-10T08:15:49.556Z,19476.48
2023-05-10T08:16:49.622Z,18728.96
2023-05-10T08:17:49.814Z,18063.36
2023-05-10T08:18:49.883Z,17305.6
2023-05-10T08:19:50.018Z,16588.8
2023-05-10T08:20:50.129Z,15851.52
2023-05-10T08:21:50.291Z,15411.199
2023-05-10T08:22:51.864Z,15175.68
2023-05-10T08:23:50.536Z,15083.52
2023-05-10T08:24:50.681Z,14991.359
2023-05-10T08:25:50.782Z,14827.52
2023-05-10T08:26:50.892Z,14540.8
2023-05-10T08:27:50.994Z,14295.04
2023-05-10T08:28:51.144Z,14028.8
2023-05-10T08:29:51.242Z,13731.84
2023-05-10T08:30:51.391Z,13383.68
2023-05-10T08:31:51.529Z,13148.16
2023-05-10T08:32:51.646Z,13127.68
2023-05-10T08:33:51.738Z,13434.88
2023-05-10T08:34:51.803Z,13772.8
2023-05-10T08:35:51.971Z,14264.319
2023-05-10T08:36:52.107Z,14643.199
2023-05-10T08:37:52.266Z,14807.04
2023-05-10T08:38:52.419Z,14888.96
2023-05-10T08:39:52.621Z,14848
2023-05-10T08:40:52.687Z,14673.92
2023-05-10T08:41:52.823Z,14469.12
2023-05-10T08:42:52.966Z,14233.6
2023-05-10T08:43:53.120Z,13793.279
2023-05-10T08:44:53.262Z,13445.12
2023-05-10T08:45:53.378Z,13332.479
2023-05-10T08:46:53.496Z,13373.439
2023-05-10T08:47:53.673Z,13445.12
2023-05-10T08:48:53.774Z,13271.04
2023-05-10T08:49:53.884Z,12974.08
2023-05-10T08:50:54.034Z,12544
2023-05-10T08:51:54.190Z,12134.399
2023-05-10T08:52:54.353Z,11427.84
2023-05-10T08:53:54.511Z,11171.84
2023-05-10T08:54:54.640Z,10833.92
2023-05-10T08:55:54.765Z,10419.2
2023-05-10T08:56:54.915Z,10204.16
2023-05-10T08:57:55.146Z,10096.64
2023-05-10T08:58:55.261Z,10030.08
2023-05-10T08:59:55.438Z,9978.88
2023-05-10T09:00:55.649Z,10009.6
2023-05-10T09:01:55.711Z,10081.279
2023-05-10T09:02:55.961Z,10219.52
2023-05-10T09:03:56.019Z,10388.479
2023-05-10T09:04:56.190Z,10618.88
2023-05-10T09:05:56.207Z,10864.64
2023-05-10T09:06:56.365Z,11059.2
2023-05-10T09:07:56.506Z,11233.279
2023-05-10T09:08:56.612Z,11407.359
2023-05-10T09:09:56.720Z,11489.279
2023-05-10T09:10:56.868Z,11479.04
2023-05-10T09:11:57.032Z,11458.56
2023-05-10T09:12:59.179Z,11438.08
2023-05-10T09:13:57.326Z,11386.88
2023-05-10T09:14:57.432Z,11335.68
2023-05-10T09:16:00.312Z,11253.76
2023-05-10T09:16:57.712Z,11192.319
2023-05-10T09:17:57.742Z,11202.56
2023-05-10T09:18:57.890Z,11253.76
2023-05-10T09:19:57.980Z,11325.439
2023-05-10T09:20:58.076Z,11264
2023-05-10T09:21:58.233Z,11028.479
2023-05-10T09:22:58.394Z,10629.12
2023-05-10T09:23:58.489Z,10035.2
2023-05-10T09:24:58.663Z,9395.2
2023-05-10T09:25:58.802Z,9154.56
2023-05-10T09:26:58.900Z,9164.8
2023-05-10T09:27:59.060Z,9415.68
2023-05-10T09:28:59.159Z,9692.16
2023-05-10T09:29:59.309Z,9845.76
2023-05-10T09:30:59.487Z,9738.24
2023-05-10T09:31:59.551Z,9579.52
2023-05-10T09:32:59.779Z,9533.439
2023-05-10T09:33:59.807Z,9610.24
2023-05-10T09:34:59.906Z,9553.92
2023-05-10T09:36:00.018Z,9410.56
2023-05-10T09:37:00.163Z,9216
2023-05-10T09:38:00.318Z,8939.52
2023-05-10T09:39:00.476Z,8693.76
2023-05-10T09:40:00.614Z,8309.76
2023-05-10T09:41:00.769Z,8028.16
2023-05-10T09:42:00.916Z,7767.04
2023-05-10T09:43:01.067Z,7674.88
2023-05-10T09:44:01.212Z,7618.56
2023-05-10T09:45:01.420Z,7598.08
2023-05-10T09:46:01.564Z,7669.76
2023-05-10T09:47:01.635Z,7808
2023-05-10T09:48:01.885Z,8130.56
2023-05-10T09:49:01.936Z,8550.399
2023-05-10T09:50:02.097Z,8924.16
2023-05-10T09:51:02.199Z,9128.96
2023-05-10T09:52:02.344Z,9333.76
2023-05-10T09:53:02.489Z,9564.16
2023-05-10T09:54:02.589Z,9794.56
2023-05-10T09:55:02.743Z,10045.439
2023-05-10T09:56:02.909Z,10250.24
2023-05-10T09:57:03.048Z,10496
2023-05-10T09:58:03.192Z,10670.08
2023-05-10T09:59:03.282Z,10803.2
2023-05-10T10:00:03.406Z,10721.279
2023-05-10T10:01:03.657Z,10465.279
2023-05-10T10:02:03.739Z,9907.2
2023-05-10T10:03:03.775Z,9646.08
2023-05-10T10:04:03.922Z,9738.24
2023-05-10T10:05:04.108Z,9907.2
2023-05-10T10:06:04.169Z,9937.92
2023-05-10T10:07:04.390Z,9743.359
2023-05-10T10:08:04.471Z,9564.16
2023-05-10T10:09:04.612Z,9451.52
2023-05-10T10:10:04.718Z,9477.12
2023-05-10T10:11:04.884Z,9564.16
2023-05-10T10:12:05.026Z,9712.64
2023-05-10T10:13:05.199Z,9763.84
2023-05-10T10:14:05.326Z,9512.96
2023-05-10T10:15:05.488Z,9154.56
2023-05-10T10:16:05.636Z,8821.76
2023-05-10T10:17:08.560Z,8581.12
2023-05-10T10:18:05.900Z,8350.72
2023-05-10T10:19:05.974Z,8084.48
2023-05-10T10:20:06.040Z,7951.36
2023-05-10T10:21:06.161Z,7843.84
2023-05-10T10:22:06.302Z,7715.84
2023-05-10T10:23:06.438Z,7516.16
2023-05-10T10:24:06.550Z,7413.76
2023-05-10T10:25:06.717Z,7418.88
2023-05-10T10:26:06.829Z,7669.76
2023-05-10T10:27:06.945Z,7992.32
2023-05-10T10:28:07.094Z,8340.48
2023-05-10T10:29:07.251Z,8663.04
2023-05-10T10:30:07.380Z,8704
2023-05-10T10:31:07.582Z,8555.52
2023-05-10T10:32:07.654Z,8376.32
2023-05-10T10:33:16.780Z,8407.04
2023-05-10T10:34:07.955Z,8545.28
2023-05-10T10:35:08.029Z,8760.319
2023-05-10T10:36:08.160Z,8975.359
2023-05-10T10:37:08.312Z,9287.68
2023-05-10T10:38:08.506Z,9646.08
2023-05-10T10:39:08.612Z,10173.439
2023-05-10T10:40:08.728Z,10670.08
2023-05-10T10:41:08.832Z,10506.24
2023-05-10T10:42:08.983Z,9804.8
2023-05-10T10:43:09.082Z,9272.319
2023-05-10T10:44:09.237Z,9077.76
2023-05-10T10:45:09.386Z,9195.52
2023-05-10T10:46:09.538Z,9405.439
2023-05-10T10:47:09.876Z,9635.84
2023-05-10T10:48:09.840Z,9651.2
2023-05-10T10:49:09.996Z,9543.68
2023-05-10T10:50:10.099Z,9251.84
2023-05-10T10:51:12.291Z,8888.319
2023-05-10T10:52:10.336Z,8350.72
2023-05-10T10:53:10.540Z,7941.12
2023-05-10T10:54:10.598Z,7567.36
2023-05-10T10:55:10.713Z,7178.24
2023-05-10T10:56:10.856Z,6865.92
2023-05-10T10:57:10.954Z,6492.16
2023-05-10T10:58:11.120Z,6144
2023-05-10T10:59:11.214Z,5749.76
2023-05-10T11:00:11.299Z,5350.4
2023-05-10T11:01:11.428Z,4884.48
2023-05-10T11:02:11.533Z,4605.44
2023-05-10T11:03:11.714Z,4392.96
2023-05-10T11:04:11.837Z,4326.4
2023-05-10T11:05:11.908Z,4295.68
2023-05-10T11:06:12.023Z,4305.92
2023-05-10T11:07:12.168Z,4367.36
2023-05-10T11:08:12.333Z,4459.52
2023-05-10T11:09:12.473Z,4615.68
2023-05-10T11:10:12.630Z,4802.56
2023-05-10T11:11:12.782Z,5145.6
2023-05-10T11:12:12.925Z,5463.04
2023-05-10T11:13:13.027Z,5780.48
2023-05-10T11:14:13.151Z,6123.52
2023-05-10T11:15:13.242Z,6328.32
2023-05-10T11:16:13.440Z,6435.84
2023-05-10T11:17:13.530Z,6446.08
2023-05-10T11:18:13.579Z,6359.04
2023-05-10T11:19:13.845Z,6256.64
2023-05-10T11:20:13.952Z,6236.16
2023-05-10T11:21:14.049Z,6287.36
2023-05-10T11:22:14.225Z,6231.04
2023-05-10T11:23:14.298Z,6179.84
2023-05-10T11:24:14.388Z,6154.24
2023-05-10T11:25:14.527Z,6200.32
2023-05-10T11:26:14.609Z,6241.28
2023-05-10T11:27:14.710Z,6220.8
2023-05-10T11:28:14.876Z,6138.88
2023-05-10T11:29:15.037Z,6113.28
2023-05-10T11:30:15.354Z,6113.28
2023-05-10T11:31:15.342Z,6118.4
2023-05-10T11:32:15.369Z,6164.48
2023-05-10T11:33:15.462Z,6292.48
2023-05-10T11:34:15.611Z,6507.52
2023-05-10T11:35:15.727Z,6533.12
2023-05-10T11:36:15.876Z,6517.76
2023-05-10T11:37:16.015Z,6502.4
2023-05-10T11:38:16.133Z,6517.76
2023-05-10T11:39:16.234Z,6568.96
2023-05-10T11:40:16.510Z,6533.12
2023-05-10T11:41:16.520Z,6507.52
2023-05-10T11:42:16.629Z,6451.2
2023-05-10T11:43:16.774Z,6430.72
2023-05-10T11:44:16.886Z,6425.6
2023-05-10T11:45:16.987Z,6543.36
2023-05-10T11:46:17.179Z,6778.88
2023-05-10T11:47:17.237Z,7096.32
2023-05-10T11:48:17.379Z,7500.8
2023-05-10T11:49:17.540Z,7833.6
2023-05-10T11:50:17.799Z,8238.08
2023-05-10T11:51:17.796Z,8494.08
2023-05-10T11:52:17.902Z,8714.24
2023-05-10T11:53:18.047Z,8867.84
2023-05-10T11:54:18.198Z,8842.24
2023-05-10T11:55:18.322Z,8801.28
2023-05-10T11:56:18.461Z,8857.6
2023-05-10T11:57:18.568Z,9057.28
2023-05-10T11:58:18.720Z,9262.08
2023-05-10T11:59:18.823Z,9456.64
2023-05-10T12:00:19.087Z,9753.6
2023-05-10T12:01:19.106Z,10199.04
2023-05-10T12:02:19.216Z,10721.279
2023-05-10T12:03:19.456Z,10956.8
2023-05-10T12:04:19.615Z,11069.439
2023-05-10T12:05:19.660Z,11089.92
2023-05-10T12:06:19.820Z,11018.24
2023-05-10T12:07:19.916Z,10874.88
2023-05-10T12:08:20.019Z,10567.68
2023-05-10T12:09:28.264Z,10332.16
2023-05-10T12:10:20.494Z,10147.84
2023-05-10T12:11:20.434Z,10117.12
2023-05-10T12:12:20.552Z,10193.92
2023-05-10T12:13:20.779Z,10393.6
2023-05-10T12:14:20.779Z,10598.399
2023-05-10T12:15:20.929Z,10731.52
2023-05-10T12:16:21.141Z,10885.12
2023-05-10T12:17:21.242Z,10874.88
2023-05-10T12:18:21.393Z,10772.479
2023-05-10T12:19:21.500Z,10598.399
2023-05-10T12:20:21.657Z,10516.479
2023-05-10T12:21:21.833Z,10475.52
2023-05-10T12:22:21.895Z,10455.04
2023-05-10T12:23:21.992Z,10496
2023-05-10T12:24:22.145Z,10588.16